createdAt,value
2019-03-03T00:29:31.212Z,0
2019-03-03T00:36:43.591Z,0
2019-03-03T00:37:42.141Z,0
2019-03-03T00:40:38.917Z,0
2019-03-03T00:41:37.750Z,0
2019-03-03T00:42:36.427Z,0
2019-03-03T00:43:35.022Z,0
2019-03-03T00:44:33.669Z,0
2019-03-03T00:47:40.488Z,0
2019-03-03T00:48:39.082Z,0
2019-03-03T00:49:37.736Z,0
2019-03-03T00:50:36.338Z,0
2019-03-03T00:51:35.258Z,0
2019-03-03T00:54:09.574Z,0
2019-03-03T00:56:32.461Z,0
2019-03-03T00:57:31.165Z,0
2019-03-03T01:12:15.427Z,0
2019-03-03T01:15:03.637Z,0
2019-03-03T01:17:53.882Z,0
2019-03-03T01:18:52.481Z,0
2019-03-03T01:19:51.340Z,0
2019-03-03T01:20:49.965Z,0
2019-03-03T01:21:48.608Z,0
2019-03-03T01:22:47.199Z,0
2019-03-03T01:23:46.214Z,0
2019-03-03T01:24:44.933Z,0
2019-03-03T01:25:43.732Z,0
2019-03-03T01:28:06.853Z,0
2019-03-03T01:29:06.288Z,0
2019-03-03T01:30:04.146Z,0
2019-03-03T01:31:02.698Z,0
2019-03-03T01:37:17.695Z,0
2019-03-03T01:40:18.038Z,0
2019-03-03T01:41:16.745Z,0
2019-03-03T01:45:13.664Z,0
2019-03-03T01:56:53.284Z,0
2019-03-03T01:57:51.905Z,0
2019-03-03T01:58:50.401Z,0
2019-03-03T01:59:49.075Z,0
2019-03-03T02:02:21.717Z,0
2019-03-03T02:03:20.233Z,0
2019-03-03T02:04:19.168Z,0
2019-03-03T02:07:20.357Z,0
2019-03-03T02:08:19.074Z,0
2019-03-03T02:14:24.802Z,0
2019-03-03T02:17:07.898Z,0
2019-03-03T02:20:06.215Z,0
2019-03-03T02:27:20.624Z,0
2019-03-03T02:28:19.378Z,0
2019-03-03T02:29:18.028Z,0
2019-03-03T02:30:16.593Z,0
2019-03-03T02:33:16.613Z,0
2019-03-03T02:38:15.259Z,0
2019-03-03T02:39:13.789Z,0
2019-03-03T02:40:12.291Z,0
2019-03-03T02:41:11.129Z,0
2019-03-03T02:42:09.701Z,0
2019-03-03T02:45:09.061Z,0
2019-03-03T02:46:07.719Z,0
2019-03-03T02:48:42.335Z,0
2019-03-03T02:49:40.879Z,0
2019-03-03T02:50:39.869Z,0
2019-03-03T02:53:33.025Z,0
2019-03-03T02:54:31.699Z,0
2019-03-03T02:55:30.265Z,0
2019-03-03T03:15:09.219Z,0
2019-03-03T03:16:07.929Z,0
2019-03-03T03:19:17.344Z,0
2019-03-03T03:20:16.067Z,0
2019-03-03T03:21:14.692Z,0
2019-03-03T03:22:13.545Z,0
2019-03-03T03:23:12.148Z,0
2019-03-03T03:25:34.701Z,0
2019-03-03T03:26:33.246Z,0
2019-03-03T03:27:31.777Z,0
2019-03-03T03:28:30.308Z,0
2019-03-03T03:29:28.884Z,0
2019-03-03T03:32:49.991Z,0
2019-03-03T03:33:49.300Z,0
2019-03-03T03:34:47.893Z,0
2019-03-03T03:35:46.447Z,0
2019-03-03T03:54:55.099Z,0
2019-03-03T03:58:16.425Z,0
2019-03-03T03:59:15.174Z,0
2019-03-03T04:00:13.778Z,0
2019-03-03T04:01:12.393Z,0
2019-03-03T04:02:11.122Z,0
2019-03-03T04:03:09.633Z,0
2019-03-03T04:04:08.223Z,0
2019-03-03T04:05:06.801Z,0
2019-03-03T04:06:05.371Z,0
2019-03-03T04:07:03.885Z,0
2019-03-03T04:08:05.577Z,0
2019-03-03T04:09:04.145Z,0
2019-03-03T04:10:02.917Z,0
2019-03-03T04:11:01.645Z,0
2019-03-03T04:12:00.133Z,0
2019-03-03T04:12:58.666Z,0
2019-03-03T04:13:57.253Z,0
2019-03-03T04:14:55.790Z,0
2019-03-03T04:15:54.389Z,0
2019-03-03T04:16:53.114Z,0
2019-03-03T04:17:51.783Z,0
2019-03-03T04:18:50.342Z,0
2019-03-03T04:19:50.132Z,0
2019-03-03T04:20:48.794Z,0
2019-03-03T04:25:01.061Z,0
2019-03-03T04:25:59.750Z,0
2019-03-03T04:28:22.646Z,0
2019-03-03T04:29:21.488Z,0
2019-03-03T04:30:20.017Z,0
2019-03-03T04:31:18.532Z,0
2019-03-03T04:32:17.351Z,0
2019-03-03T04:33:15.879Z,0
2019-03-03T04:34:17.446Z,0
2019-03-03T04:35:13.942Z,0
2019-03-03T04:36:12.593Z,0
2019-03-03T04:37:11.270Z,0
2019-03-03T04:38:09.896Z,0
2019-03-03T04:39:08.475Z,0
2019-03-03T04:40:07.241Z,0
2019-03-03T04:41:05.811Z,0
2019-03-03T04:42:04.427Z,0
2019-03-03T04:43:03.052Z,0
2019-03-03T04:44:01.641Z,0
2019-03-03T04:45:00.307Z,0
2019-03-03T04:45:58.732Z,0
2019-03-03T04:46:57.294Z,0
2019-03-03T04:47:55.957Z,0
2019-03-03T04:48:54.539Z,0
2019-03-03T04:49:53.313Z,0
2019-03-03T04:50:51.881Z,0
2019-03-03T04:51:50.641Z,0
2019-03-03T04:52:49.440Z,0
2019-03-03T04:53:47.992Z,0
2019-03-03T04:54:46.504Z,0
2019-03-03T04:55:46.092Z,0
2019-03-03T04:56:44.642Z,0
2019-03-03T04:57:43.430Z,0
2019-03-03T04:58:42.062Z,0
2019-03-03T04:59:40.696Z,0
2019-03-03T05:00:39.309Z,0
2019-03-03T05:01:37.860Z,0
2019-03-03T05:02:36.439Z,0
2019-03-03T05:03:34.933Z,0
2019-03-03T05:04:33.559Z,0
2019-03-03T05:05:32.293Z,0
2019-03-03T05:06:30.863Z,0
2019-03-03T05:07:29.616Z,0
2019-03-03T05:08:28.247Z,0
2019-03-03T05:09:26.884Z,0
2019-03-03T05:10:25.514Z,0
2019-03-03T05:11:24.070Z,0
2019-03-03T05:12:22.599Z,0
2019-03-03T05:13:21.154Z,0
2019-03-03T05:14:19.815Z,0
2019-03-03T05:15:18.493Z,0
2019-03-03T05:16:49.570Z,0
2019-03-03T05:17:48.065Z,0
2019-03-03T05:18:46.619Z,0
2019-03-03T05:19:45.245Z,0
2019-03-03T05:22:10.172Z,0
2019-03-03T05:23:08.783Z,0
2019-03-03T05:24:07.620Z,0
2019-03-03T05:25:06.099Z,0
2019-03-03T05:39:12.555Z,0
2019-03-03T05:40:11.288Z,0
2019-03-03T05:42:34.029Z,0
2019-03-03T05:44:51.007Z,0
2019-03-03T05:45:49.706Z,0
2019-03-03T05:46:48.542Z,0
2019-03-03T05:47:46.902Z,0
2019-03-03T05:48:45.716Z,0
2019-03-03T05:49:45.072Z,4
2019-03-03T05:50:43.662Z,4
2019-03-03T05:51:42.411Z,4
2019-03-03T05:52:41.164Z,4
2019-03-03T05:53:39.695Z,8
2019-03-03T05:54:38.239Z,8
2019-03-03T05:55:36.878Z,8
2019-03-03T05:56:35.479Z,8
2019-03-03T05:57:34.030Z,12
2019-03-03T05:58:32.629Z,16
2019-03-03T05:59:31.460Z,20
2019-03-03T06:00:30.100Z,24
2019-03-03T06:01:28.865Z,24
2019-03-03T06:02:27.527Z,24
2019-03-03T06:03:26.085Z,24
2019-03-03T06:04:24.687Z,24
2019-03-03T06:05:23.527Z,28
2019-03-03T06:06:22.139Z,24
2019-03-03T06:07:20.709Z,28
2019-03-03T06:08:19.492Z,28
2019-03-03T06:09:18.104Z,36
2019-03-03T06:10:16.704Z,36
2019-03-03T06:11:15.653Z,40
2019-03-03T06:12:14.262Z,40
2019-03-03T06:13:12.985Z,52
2019-03-03T06:14:11.556Z,56
2019-03-03T06:15:10.097Z,88
2019-03-03T06:16:08.667Z,96
2019-03-03T06:17:07.240Z,92
2019-03-03T06:18:05.806Z,92
2019-03-03T06:19:04.415Z,76
2019-03-03T06:20:03.293Z,80
2019-03-03T06:21:01.871Z,88
2019-03-03T06:22:00.444Z,80
2019-03-03T06:22:59.177Z,84
2019-03-03T06:23:57.744Z,100
2019-03-03T06:24:56.266Z,104
2019-03-03T06:25:54.840Z,100
2019-03-03T06:26:53.408Z,104
2019-03-03T06:27:51.995Z,136
2019-03-03T06:28:50.460Z,220
2019-03-03T06:29:49.520Z,248
2019-03-03T06:30:48.074Z,264
2019-03-03T06:31:47.255Z,284
2019-03-03T06:32:45.848Z,272
2019-03-03T06:33:44.382Z,252
2019-03-03T06:34:43.925Z,240
2019-03-03T06:35:42.573Z,220
2019-03-03T06:36:43.302Z,208
2019-03-03T06:37:41.849Z,204
2019-03-03T06:38:40.498Z,212
2019-03-03T06:39:39.064Z,228
2019-03-03T06:40:38.012Z,264
2019-03-03T06:41:36.631Z,280
2019-03-03T06:42:35.468Z,288
2019-03-03T06:43:34.135Z,304
2019-03-03T06:44:32.768Z,328
2019-03-03T06:45:31.639Z,352
2019-03-03T06:46:30.155Z,368
2019-03-03T06:47:28.727Z,372
2019-03-03T06:48:27.432Z,380
2019-03-03T06:49:25.927Z,400
2019-03-03T06:50:24.504Z,404
2019-03-03T06:51:23.130Z,396
2019-03-03T06:52:21.724Z,420
2019-03-03T06:53:20.336Z,448
2019-03-03T06:54:19.574Z,440
2019-03-03T06:55:19.103Z,428
2019-03-03T06:57:44.146Z,396
2019-03-03T06:58:42.939Z,384
2019-03-03T06:59:41.533Z,364
2019-03-03T07:00:40.117Z,392
2019-03-03T07:01:38.666Z,404
2019-03-03T07:02:37.544Z,444
2019-03-03T07:03:36.068Z,476
2019-03-03T07:04:34.749Z,480
2019-03-03T07:05:33.459Z,520
2019-03-03T07:06:32.006Z,524
2019-03-03T07:07:30.573Z,548
2019-03-03T07:08:29.166Z,572
2019-03-03T07:09:27.743Z,576
2019-03-03T07:10:26.339Z,496
2019-03-03T07:11:24.905Z,432
2019-03-03T07:12:24.688Z,424
2019-03-03T07:13:23.332Z,428
2019-03-03T07:14:21.977Z,424
2019-03-03T07:15:20.432Z,424
2019-03-03T07:16:19.160Z,412
2019-03-03T07:17:17.810Z,448
2019-03-03T07:18:16.958Z,504
2019-03-03T07:19:15.690Z,536
2019-03-03T07:20:14.325Z,516
2019-03-03T07:21:13.296Z,480
2019-03-03T07:22:11.912Z,504
2019-03-03T07:23:10.663Z,564
2019-03-03T07:26:08.913Z,640
2019-03-03T07:27:07.614Z,748
2019-03-03T07:28:06.162Z,804
2019-03-03T07:29:04.733Z,844
2019-03-03T07:30:03.379Z,932
2019-03-03T07:31:01.845Z,1004
2019-03-03T07:32:00.428Z,1016
2019-03-03T07:32:58.991Z,1152
2019-03-03T07:33:57.754Z,1156
2019-03-03T07:34:56.410Z,1160
2019-03-03T07:35:55.045Z,1284
2019-03-03T07:36:53.702Z,1384
2019-03-03T07:37:53.200Z,1528
2019-03-03T07:38:51.893Z,1624
2019-03-03T07:39:50.427Z,1540
2019-03-03T07:40:48.999Z,1352
2019-03-03T07:41:47.632Z,1168
2019-03-03T07:44:10.387Z,1336
2019-03-03T07:45:08.975Z,1404
2019-03-03T07:49:31.694Z,1464
2019-03-03T07:50:30.284Z,1476
2019-03-03T07:51:28.838Z,1584
2019-03-03T07:54:09.438Z,1564
2019-03-03T07:55:08.026Z,1544
2019-03-03T07:56:06.606Z,1596
2019-03-03T08:23:36.965Z,1320
2019-03-03T08:24:35.539Z,1412
2019-03-03T08:25:34.058Z,1492
2019-03-03T08:26:32.621Z,1560
2019-03-03T08:27:31.209Z,1488
2019-03-03T08:28:29.907Z,1432
2019-03-03T08:29:28.477Z,1452
2019-03-03T08:30:27.215Z,1516
2019-03-03T08:31:25.799Z,1600
2019-03-03T08:32:24.371Z,1720
2019-03-03T08:33:22.994Z,1828
2019-03-03T08:34:21.610Z,1860
2019-03-03T08:35:20.189Z,2012
2019-03-03T08:36:18.790Z,2320
2019-03-03T08:37:17.378Z,2508
2019-03-03T08:38:16.029Z,2496
2019-03-03T08:39:14.593Z,2312
2019-03-03T08:40:13.468Z,2216
2019-03-03T08:41:12.032Z,2192
2019-03-03T08:42:10.593Z,2104
2019-03-03T08:43:09.294Z,2048
2019-03-03T08:44:07.874Z,2120
2019-03-03T08:45:06.459Z,2128
2019-03-03T08:46:05.266Z,2336
2019-03-03T08:47:03.945Z,2176
2019-03-03T08:48:02.484Z,1980
2019-03-03T08:49:01.409Z,1988
2019-03-03T08:49:59.958Z,1676
2019-03-03T08:50:58.522Z,1436
2019-03-03T08:51:57.089Z,1424
2019-03-03T08:52:55.795Z,1484
2019-03-03T08:53:54.345Z,1356
2019-03-03T08:54:53.136Z,1368
2019-03-03T08:55:51.861Z,1556
2019-03-03T08:56:50.412Z,1540
2019-03-03T08:57:49.004Z,1572
2019-03-03T09:01:27.895Z,1740
2019-03-03T09:25:38.521Z,3512
2019-03-03T09:26:37.288Z,3532
2019-03-03T09:29:25.246Z,3024
2019-03-03T09:30:23.978Z,2888
2019-03-03T09:31:22.667Z,2472
2019-03-03T09:32:21.580Z,2180
2019-03-03T09:33:20.109Z,2432
2019-03-03T09:34:18.688Z,2664
2019-03-03T09:36:58.981Z,2724
2019-03-03T09:37:57.653Z,2964
2019-03-03T09:40:20.388Z,2852
2019-03-03T09:41:18.947Z,2588
2019-03-03T09:42:17.513Z,2408
2019-03-03T09:53:55.854Z,3516
2019-03-03T09:54:54.430Z,3348
2019-03-03T09:55:53.003Z,2964
2019-03-03T09:56:51.858Z,3088
2019-03-03T09:57:50.543Z,3268
2019-03-03T09:58:49.360Z,3396
2019-03-03T09:59:48.002Z,3492
2019-03-03T10:00:46.616Z,3732
2019-03-03T10:01:45.418Z,3888
2019-03-03T10:04:42.283Z,3820
2019-03-03T10:05:40.938Z,3756
2019-03-03T10:06:39.521Z,3944
2019-03-03T10:07:38.109Z,4016
2019-03-03T10:08:36.641Z,4324
2019-03-03T10:09:35.486Z,4380
2019-03-03T10:10:34.039Z,4372
2019-03-03T10:11:32.595Z,4448
2019-03-03T10:12:31.316Z,4492
2019-03-03T10:13:30.070Z,4320
2019-03-03T10:14:28.648Z,3980
2019-03-03T10:15:27.242Z,3916
2019-03-03T10:16:25.934Z,3944
2019-03-03T10:17:24.460Z,4052
2019-03-03T10:18:23.194Z,4016
2019-03-03T10:19:21.970Z,3788
2019-03-03T10:20:20.532Z,3660
2019-03-03T10:21:19.207Z,3704
2019-03-03T10:22:17.761Z,4012
2019-03-03T10:23:16.320Z,4324
2019-03-03T10:24:14.895Z,4748
2019-03-03T10:25:13.729Z,4972
2019-03-03T10:26:12.433Z,4808
2019-03-03T10:27:11.145Z,4508
2019-03-03T10:28:09.837Z,4296
2019-03-03T10:29:08.479Z,3820
2019-03-03T10:30:07.382Z,3560
2019-03-03T10:31:05.965Z,3664
2019-03-03T10:32:04.569Z,3488
2019-03-03T10:33:03.390Z,3248
2019-03-03T10:34:01.975Z,2852
2019-03-03T10:35:00.555Z,2560
2019-03-03T10:35:59.466Z,2360
2019-03-03T10:36:58.042Z,2352
2019-03-03T10:37:56.596Z,2388
2019-03-03T10:38:55.155Z,2276
2019-03-03T10:39:53.723Z,2104
2019-03-03T10:40:52.337Z,2196
2019-03-03T10:41:50.958Z,2200
2019-03-03T10:42:49.539Z,1992
2019-03-03T10:43:48.205Z,1892
2019-03-03T10:44:46.829Z,1880
2019-03-03T10:45:45.655Z,2088
2019-03-03T10:46:44.237Z,2240
2019-03-03T10:47:42.774Z,2296
2019-03-03T10:48:41.596Z,2212
2019-03-03T10:49:40.136Z,2196
2019-03-03T10:50:38.656Z,2192
2019-03-03T10:51:37.266Z,2276
2019-03-03T10:52:35.910Z,2068
2019-03-03T10:53:34.481Z,2108
2019-03-03T10:54:33.221Z,2536
2019-03-03T10:55:31.969Z,2872
2019-03-03T10:56:30.524Z,2892
2019-03-03T10:57:30.360Z,2964
2019-03-03T10:58:27.800Z,3184
2019-03-03T10:59:26.389Z,3288
2019-03-03T11:00:25.040Z,3348
2019-03-03T11:01:23.742Z,3836
2019-03-03T11:02:22.304Z,4024
2019-03-03T11:03:20.983Z,4056
2019-03-03T11:04:19.794Z,4280
2019-03-03T11:05:18.417Z,4468
2019-03-03T11:06:17.005Z,4328
2019-03-03T11:08:57.083Z,3916
2019-03-03T11:09:55.861Z,3684
2019-03-03T11:10:57.481Z,3928
2019-03-03T11:11:53.469Z,4056
2019-03-03T11:12:52.025Z,3972
2019-03-03T11:13:50.802Z,3932
2019-03-03T11:14:49.505Z,4072
2019-03-03T11:15:48.158Z,4252
2019-03-03T11:16:46.803Z,4380
2019-03-03T11:17:45.442Z,4524
2019-03-03T11:18:44.037Z,4668
2019-03-03T11:19:42.607Z,4692
2019-03-03T11:20:41.144Z,4620
2019-03-03T11:21:39.825Z,4672
2019-03-03T11:22:38.402Z,4656
2019-03-03T11:23:37.136Z,4480
2019-03-03T11:24:35.856Z,4336
2019-03-03T11:25:34.388Z,4448
2019-03-03T11:26:33.117Z,4744
2019-03-03T11:30:27.776Z,6100
2019-03-03T11:31:26.447Z,6304
2019-03-03T11:32:25.170Z,6524
2019-03-03T11:33:23.718Z,6856
2019-03-03T11:34:22.303Z,7060
2019-03-03T11:35:20.888Z,6964
2019-03-03T11:36:19.806Z,6892
2019-03-03T11:38:38.236Z,7168
2019-03-03T11:39:36.948Z,7300
2019-03-03T11:40:35.734Z,7396
2019-03-03T11:41:34.299Z,7428
2019-03-03T11:42:32.868Z,7368
2019-03-03T11:43:31.469Z,7436
2019-03-03T11:44:30.224Z,7472
2019-03-03T11:45:28.962Z,7464
2019-03-03T11:46:27.801Z,7328
2019-03-03T11:47:26.405Z,7120
2019-03-03T11:48:25.109Z,7044
2019-03-03T11:49:23.854Z,7020
2019-03-03T11:50:22.420Z,6968
2019-03-03T11:51:21.354Z,6944
2019-03-03T11:52:19.902Z,6872
2019-03-03T11:53:18.502Z,6708
2019-03-03T11:54:17.086Z,6180
2019-03-03T11:55:15.686Z,5664
2019-03-03T11:56:14.283Z,5856
2019-03-03T11:57:12.837Z,5584
2019-03-03T11:58:11.615Z,5476
2019-03-03T11:59:10.168Z,5464
2019-03-03T12:00:09.940Z,5720
2019-03-03T12:01:07.475Z,5948
2019-03-03T12:02:06.068Z,6168
2019-03-03T12:03:04.643Z,6184
2019-03-03T12:04:03.305Z,5916
2019-03-03T12:05:02.185Z,5380
2019-03-03T12:06:00.754Z,5052
2019-03-03T12:06:59.698Z,4964
2019-03-03T12:07:58.293Z,5176
2019-03-03T12:08:56.982Z,5292
2019-03-03T12:09:55.779Z,5336
2019-03-03T12:10:54.254Z,5264
2019-03-03T12:11:52.896Z,5048
2019-03-03T12:12:51.662Z,5140
2019-03-03T12:13:50.378Z,5332
2019-03-03T12:14:49.018Z,5464
2019-03-03T12:15:47.853Z,5512
2019-03-03T12:16:46.414Z,5432
2019-03-03T12:17:45.037Z,5268
2019-03-03T12:18:43.812Z,5084
2019-03-03T12:19:42.339Z,4868
2019-03-03T12:20:40.962Z,4604
2019-03-03T12:21:39.640Z,4256
2019-03-03T12:22:38.192Z,3984
2019-03-03T12:23:36.785Z,3780
2019-03-03T12:24:35.555Z,3552
2019-03-03T12:25:34.132Z,3444
2019-03-03T12:26:32.710Z,3412
2019-03-03T12:27:31.355Z,3364
2019-03-03T12:28:29.947Z,3376
2019-03-03T12:29:28.508Z,3356
2019-03-03T12:30:28.553Z,3324
2019-03-03T12:31:25.630Z,3264
2019-03-03T12:32:24.208Z,3248
2019-03-03T12:33:22.773Z,3448
2019-03-03T12:34:21.695Z,3804
2019-03-03T12:35:20.377Z,4056
2019-03-03T12:36:19.077Z,4140
2019-03-03T12:37:17.624Z,4096
2019-03-03T12:38:16.187Z,4044
2019-03-03T12:39:14.744Z,3940
2019-03-03T12:40:13.300Z,3856
2019-03-03T12:41:12.010Z,3668
2019-03-03T12:42:10.593Z,3388
2019-03-03T12:43:09.148Z,3196
2019-03-03T12:44:07.778Z,3016
2019-03-03T12:45:06.337Z,2932
2019-03-03T12:46:04.973Z,2916
2019-03-03T12:47:03.684Z,2844
2019-03-03T12:48:02.239Z,2676
2019-03-03T12:49:00.803Z,2720
2019-03-03T12:49:59.463Z,2704
2019-03-03T12:50:58.110Z,2676
2019-03-03T12:51:56.678Z,2548
2019-03-03T12:52:55.551Z,2436
2019-03-03T12:53:54.124Z,2332
2019-03-03T12:54:52.747Z,2324
2019-03-03T12:55:51.399Z,2244
2019-03-03T12:56:49.996Z,2140
2019-03-03T12:57:48.557Z,2048
2019-03-03T12:58:47.142Z,2036
2019-03-03T12:59:45.733Z,1896
2019-03-03T13:00:44.317Z,1628
2019-03-03T13:01:42.872Z,1524
2019-03-03T13:02:41.730Z,1644
2019-03-03T13:03:40.295Z,1812
2019-03-03T13:04:39.055Z,2152
2019-03-03T13:05:37.695Z,2308
2019-03-03T13:06:36.312Z,2320
2019-03-03T13:07:34.895Z,2404
2019-03-03T13:08:33.557Z,2524
2019-03-03T13:09:32.116Z,2592
2019-03-03T13:10:30.720Z,2492
2019-03-03T13:11:29.414Z,2356
2019-03-03T13:12:28.117Z,2384
2019-03-03T13:13:26.703Z,2516
2019-03-03T13:14:25.244Z,2740
2019-03-03T13:15:23.837Z,2912
2019-03-03T13:16:22.381Z,2844
2019-03-03T13:17:21.022Z,2780
2019-03-03T13:18:19.918Z,2412
2019-03-03T13:19:18.472Z,2260
2019-03-03T13:20:17.274Z,2336
2019-03-03T13:21:15.833Z,2316
2019-03-03T13:22:14.474Z,2160
2019-03-03T13:23:13.031Z,1992
2019-03-03T13:24:12.017Z,1956
2019-03-03T13:25:10.445Z,1936
2019-03-03T13:26:09.417Z,1944
2019-03-03T13:27:07.950Z,2000
2019-03-03T13:28:06.545Z,2032
2019-03-03T13:29:05.143Z,2060
2019-03-03T13:30:04.019Z,2040
2019-03-03T13:31:02.592Z,2076
2019-03-03T13:32:01.355Z,2028
2019-03-03T13:32:59.994Z,2120
2019-03-03T13:33:58.573Z,2160
2019-03-03T13:34:57.163Z,2304
2019-03-03T13:35:55.902Z,2436
2019-03-03T13:36:54.413Z,2436
2019-03-03T13:37:52.932Z,2880
2019-03-03T13:38:51.636Z,3304
2019-03-03T13:39:50.222Z,3184
2019-03-03T13:40:48.844Z,3292
2019-03-03T13:41:47.604Z,3588
2019-03-03T13:42:46.494Z,3784
2019-03-03T13:43:45.336Z,3464
2019-03-03T13:44:44.014Z,3228
2019-03-03T13:45:42.645Z,3284
2019-03-03T13:46:41.265Z,3664
2019-03-03T13:47:40.181Z,3664
2019-03-03T13:48:38.868Z,4200
2019-03-03T13:49:37.681Z,4404
2019-03-03T13:50:36.233Z,4560
2019-03-03T13:51:34.805Z,4680
2019-03-03T13:52:33.373Z,4812
2019-03-03T13:53:31.993Z,4620
2019-03-03T13:54:30.558Z,4740
2019-03-03T13:55:29.464Z,4932
2019-03-03T13:58:09.906Z,4968
2019-03-03T13:59:08.476Z,5288
2019-03-03T14:00:07.073Z,5728
2019-03-03T14:01:05.846Z,5932
2019-03-03T14:03:21.888Z,6020
2019-03-03T14:04:20.572Z,5968
2019-03-03T14:05:19.266Z,5888
2019-03-03T14:06:17.976Z,5464
2019-03-03T14:07:16.535Z,5152
2019-03-03T14:08:15.414Z,4992
2019-03-03T14:09:14.022Z,5036
2019-03-03T14:10:12.631Z,5108
2019-03-03T14:11:11.326Z,5124
2019-03-03T14:12:09.988Z,5048
2019-03-03T14:13:08.553Z,5000
2019-03-03T14:14:07.243Z,4892
2019-03-03T14:15:05.901Z,4768
2019-03-03T14:16:04.436Z,4652
2019-03-03T14:17:03.071Z,4488
2019-03-03T14:18:01.628Z,4300
2019-03-03T14:19:00.163Z,4160
2019-03-03T14:19:58.836Z,4020
2019-03-03T14:23:20.473Z,3540
2019-03-03T14:24:19.059Z,3628
2019-03-03T14:25:17.635Z,3576
2019-03-03T14:26:16.193Z,3392
2019-03-03T14:27:14.773Z,3180
2019-03-03T14:28:13.778Z,3040
2019-03-03T14:29:12.350Z,3032
2019-03-03T14:30:10.892Z,3184
2019-03-03T14:31:09.628Z,3112
2019-03-03T14:32:08.175Z,2728
2019-03-03T14:51:36.845Z,2916
2019-03-03T14:52:35.653Z,3024
2019-03-03T14:53:34.208Z,3080
2019-03-03T14:54:32.824Z,3140
2019-03-03T14:55:31.561Z,3264
2019-03-03T14:56:30.112Z,3356
2019-03-03T14:57:28.694Z,3356
2019-03-03T14:58:27.270Z,3316
2019-03-03T14:59:25.844Z,3352
2019-03-03T15:00:24.420Z,3292
2019-03-03T15:01:22.987Z,3172
2019-03-03T15:02:21.812Z,3012
2019-03-03T15:03:20.441Z,2848
2019-03-03T15:04:19.068Z,2728
2019-03-03T15:05:17.783Z,2640
2019-03-03T15:06:24.111Z,2572
2019-03-03T15:07:15.294Z,2496
2019-03-03T15:08:13.897Z,2420
2019-03-03T15:09:12.526Z,2308
2019-03-03T15:10:11.317Z,2192
2019-03-03T15:11:10.218Z,2116
2019-03-03T15:12:09.001Z,2096
2019-03-03T15:13:07.675Z,2076
2019-03-03T15:14:06.302Z,2032
2019-03-03T15:15:05.013Z,2016
2019-03-03T15:16:03.521Z,2032
2019-03-03T15:17:02.148Z,2076
2019-03-03T15:18:00.717Z,2076
2019-03-03T15:18:59.326Z,2060
2019-03-03T15:19:58.185Z,2036
2019-03-03T15:20:56.747Z,1996
2019-03-03T15:21:55.626Z,1932
2019-03-03T15:22:54.221Z,1860
2019-03-03T15:23:52.805Z,1780
2019-03-03T15:24:51.794Z,1708
2019-03-03T15:25:50.379Z,1664
2019-03-03T15:26:48.979Z,1612
2019-03-03T15:27:47.542Z,1540
2019-03-03T15:28:46.443Z,1476
2019-03-03T15:29:45.021Z,1408
2019-03-03T15:30:43.915Z,1340
2019-03-03T15:31:42.560Z,1288
2019-03-03T15:32:41.226Z,1124
2019-03-03T15:33:39.992Z,1196
2019-03-03T15:34:38.666Z,1172
2019-03-03T15:35:37.385Z,1144
2019-03-03T15:36:36.153Z,1112
2019-03-03T15:37:34.689Z,1084
2019-03-03T15:38:33.353Z,1064
2019-03-03T15:39:31.928Z,1048
2019-03-03T15:40:30.551Z,1032
2019-03-03T15:41:29.472Z,1020
2019-03-03T15:42:28.124Z,996
2019-03-03T15:43:26.741Z,968
2019-03-03T15:44:25.449Z,948
2019-03-03T15:45:24.124Z,936
2019-03-03T15:46:22.772Z,916
2019-03-03T15:49:02.977Z,856
2019-03-03T15:50:01.892Z,828
2019-03-03T15:51:00.498Z,828
2019-03-03T15:51:59.463Z,824
2019-03-03T15:52:58.461Z,816
2019-03-03T15:53:57.372Z,808
2019-03-03T15:54:56.338Z,800
2019-03-03T15:55:54.724Z,796
2019-03-03T15:56:53.455Z,792
2019-03-03T15:57:52.137Z,796
2019-03-03T16:03:14.446Z,660
2019-03-03T16:04:13.234Z,640
2019-03-03T16:05:11.902Z,632
2019-03-03T16:06:10.518Z,628
2019-03-03T16:07:09.077Z,620
2019-03-03T16:08:07.949Z,612
2019-03-03T16:09:06.530Z,600
2019-03-03T16:10:05.245Z,588
2019-03-03T16:11:04.096Z,580
2019-03-03T16:12:03.630Z,576
2019-03-03T16:13:03.827Z,564
2019-03-03T16:14:01.187Z,548
2019-03-03T16:14:59.840Z,540
2019-03-03T16:17:39.903Z,488
2019-03-03T16:18:38.661Z,480
2019-03-03T16:21:19.089Z,368
2019-03-03T16:22:17.841Z,384
2019-03-03T16:23:16.730Z,380
2019-03-03T16:26:39.175Z,232
2019-03-03T16:27:38.820Z,224
2019-03-03T16:28:37.511Z,224
2019-03-03T16:29:36.353Z,216
2019-03-03T16:30:34.926Z,208
2019-03-03T16:31:33.794Z,200
2019-03-03T16:32:32.433Z,184
2019-03-03T16:33:30.956Z,168
2019-03-03T16:34:29.710Z,160
2019-03-03T16:35:28.509Z,160
2019-03-03T16:36:27.218Z,152
2019-03-03T16:37:25.851Z,128
2019-03-03T16:38:24.625Z,120
2019-03-03T16:39:23.516Z,124
2019-03-03T16:40:22.382Z,120
2019-03-03T16:41:20.958Z,112
2019-03-03T16:44:00.379Z,92
2019-03-03T16:44:59.038Z,96
2019-03-03T16:45:58.073Z,92
2019-03-03T16:46:56.676Z,96
2019-03-03T16:47:55.550Z,100
2019-03-03T16:48:54.279Z,100
2019-03-03T16:49:52.827Z,96
2019-03-03T16:50:51.484Z,92
2019-03-03T16:51:50.106Z,88
2019-03-03T16:52:48.741Z,80
2019-03-03T16:55:29.280Z,68
2019-03-03T16:56:27.960Z,60
2019-03-03T16:57:26.527Z,52
2019-03-03T16:58:25.165Z,48
2019-03-03T16:59:23.996Z,44
2019-03-03T17:00:22.545Z,36
2019-03-03T17:01:21.330Z,32
2019-03-03T17:02:19.967Z,28
2019-03-03T17:03:18.562Z,24
2019-03-03T17:04:17.123Z,24
2019-03-03T17:05:15.756Z,20
2019-03-03T17:06:14.347Z,20
2019-03-03T17:07:12.883Z,16
2019-03-03T17:09:53.208Z,16
2019-03-03T17:10:51.984Z,12
2019-03-03T17:11:50.590Z,12
2019-03-03T17:12:49.144Z,16
2019-03-03T17:13:47.761Z,8
2019-03-03T17:14:46.340Z,8
2019-03-03T17:15:44.914Z,8
2019-03-03T17:30:07.303Z,0
2019-03-03T17:31:05.972Z,0
2019-03-03T17:32:04.567Z,0
2019-03-03T17:33:03.353Z,0
2019-03-03T17:34:01.954Z,0
2019-03-03T17:35:00.544Z,0
2019-03-03T17:35:59.162Z,0
2019-03-03T17:36:57.938Z,0
2019-03-03T17:37:56.955Z,0
2019-03-03T17:38:55.385Z,0
2019-03-03T17:39:53.965Z,0
2019-03-03T17:40:52.543Z,0
2019-03-03T17:41:51.114Z,0
2019-03-03T17:42:49.746Z,0
2019-03-03T17:43:48.683Z,0
2019-03-03T17:46:28.742Z,0
2019-03-03T17:47:27.446Z,0
2019-03-03T17:48:26.154Z,0
2019-03-03T17:49:24.752Z,0
2019-03-03T17:50:23.598Z,0
2019-03-03T17:51:22.401Z,0
2019-03-03T17:54:02.608Z,0
2019-03-03T17:55:01.194Z,0
2019-03-03T17:56:00.027Z,0
2019-03-03T17:56:58.587Z,0
2019-03-03T18:15:33.893Z,0
2019-03-03T18:16:32.621Z,0
2019-03-03T18:17:31.209Z,0
2019-03-03T18:18:29.894Z,0
2019-03-03T18:19:28.437Z,0
2019-03-03T18:21:43.458Z,0
2019-03-03T18:22:42.025Z,0
2019-03-03T18:23:40.555Z,0
2019-03-03T18:24:39.204Z,0
2019-03-03T18:25:37.845Z,0
2019-03-03T18:26:36.404Z,0
2019-03-03T18:27:35.008Z,0
2019-03-03T18:28:33.603Z,0
2019-03-03T18:29:32.206Z,0
2019-03-03T18:30:30.772Z,0
2019-03-03T18:31:29.341Z,0
2019-03-03T18:32:28.066Z,0
2019-03-03T18:33:26.788Z,0
2019-03-03T18:34:25.360Z,0
2019-03-03T18:35:24.143Z,0
2019-03-03T18:36:22.740Z,0
2019-03-03T18:37:21.595Z,0
2019-03-03T18:38:20.194Z,0
2019-03-03T18:39:18.738Z,0
2019-03-03T18:40:17.282Z,0
2019-03-03T18:41:15.832Z,0
2019-03-03T18:42:14.358Z,0
2019-03-03T18:43:12.913Z,0
2019-03-03T18:44:11.664Z,0
2019-03-03T18:45:10.247Z,0
2019-03-03T18:46:08.807Z,0
2019-03-03T18:47:07.420Z,0
2019-03-03T18:48:06.138Z,0
2019-03-03T18:49:04.685Z,0
2019-03-03T18:50:03.418Z,0
2019-03-03T18:51:01.956Z,0
2019-03-03T18:52:00.504Z,0
2019-03-03T18:53:00.073Z,0
2019-03-03T18:53:57.925Z,0
2019-03-03T18:54:56.489Z,0
2019-03-03T18:55:55.072Z,0
2019-03-03T18:56:53.718Z,0
2019-03-03T18:57:52.408Z,0
2019-03-03T18:58:50.978Z,0
2019-03-03T18:59:49.623Z,0
2019-03-03T19:00:48.201Z,0
2019-03-03T19:01:46.819Z,0
2019-03-03T19:02:45.494Z,0
2019-03-03T19:03:44.157Z,0
2019-03-03T19:04:42.690Z,0
2019-03-03T19:05:41.314Z,0
2019-03-03T19:06:40.064Z,0
2019-03-03T19:07:38.591Z,0
2019-03-03T19:08:37.240Z,0
2019-03-03T19:09:35.852Z,0
2019-03-03T19:10:34.392Z,0
2019-03-03T19:11:33.004Z,0
2019-03-03T19:12:31.904Z,0
2019-03-03T19:13:30.619Z,0
2019-03-03T19:14:29.189Z,0
2019-03-03T19:15:27.777Z,0
2019-03-03T19:16:26.443Z,0
2019-03-03T19:17:24.999Z,0